createdAt,value
2018-03-07T00:00:05.341Z,92.40
2018-03-07T00:02:35.190Z,92.00
2018-03-07T00:05:04.923Z,92.00
2018-03-07T00:07:34.724Z,92.20
2018-03-07T00:10:04.475Z,92.20
2018-03-07T00:12:35.059Z,92.20
2018-03-07T00:15:04.822Z,92.20
2018-03-07T00:17:35.421Z,92.50
2018-03-07T00:20:05.366Z,92.50
2018-03-07T00:22:35.152Z,92.50
2018-03-07T00:25:04.921Z,92.60
2018-03-07T00:27:34.718Z,92.70
2018-03-07T00:30:04.552Z,92.70
2018-03-07T00:32:34.353Z,92.60
2018-03-07T00:35:04.137Z,92.60
2018-03-07T00:37:35.071Z,92.70
2018-03-07T00:40:05.706Z,92.80
2018-03-07T00:42:36.269Z,92.90
2018-03-07T00:45:06.248Z,92.90
2018-03-07T00:47:37.335Z,93.30
2018-03-07T00:50:08.310Z,93.30
2018-03-07T00:52:38.796Z,93.10
2018-03-07T00:55:08.582Z,93.30
2018-03-07T00:57:39.161Z,93.20
2018-03-07T01:00:09.265Z,93.20
2018-03-07T01:02:39.773Z,93.20
2018-03-07T01:05:11.256Z,93.20
2018-03-07T01:07:41.010Z,93.40
2018-03-07T01:10:11.640Z,93.60
2018-03-07T01:12:42.375Z,93.50
2018-03-07T01:15:13.930Z,93.30
2018-03-07T01:17:44.486Z,93.20
2018-03-07T01:20:14.246Z,93.20
2018-03-07T01:22:44.030Z,93.10
2018-03-07T01:25:14.312Z,93.40
2018-03-07T01:27:44.090Z,92.80
2018-03-07T01:30:13.931Z,92.50
2018-03-07T01:32:44.509Z,92.50
2018-03-07T01:35:14.317Z,92.50
2018-03-07T01:37:45.079Z,92.40
2018-03-07T01:40:14.919Z,92.10
2018-03-07T01:42:46.928Z,92.10
2018-03-07T01:45:16.799Z,92.00
2018-03-07T01:47:47.422Z,92.00
2018-03-07T01:50:19.173Z,91.90
2018-03-07T01:52:49.712Z,91.90
2018-03-07T01:55:20.266Z,91.80
2018-03-07T01:57:51.331Z,91.70
2018-03-07T02:00:21.173Z,91.60
2018-03-07T02:02:51.422Z,91.50
2018-03-07T02:05:21.982Z,92.20
2018-03-07T02:07:51.802Z,92.20
2018-03-07T02:10:21.777Z,92.90
2018-03-07T02:12:51.587Z,92.90
2018-03-07T02:15:22.138Z,92.60
2018-03-07T02:17:51.880Z,92.60
2018-03-07T02:20:21.554Z,92.70
2018-03-07T02:22:51.877Z,92.50
2018-03-07T02:25:21.995Z,92.50
2018-03-07T02:27:52.708Z,92.40
2018-03-07T02:30:23.907Z,92.30
2018-03-07T02:32:53.690Z,92.30
2018-03-07T02:35:23.439Z,92.20
2018-03-07T02:37:53.477Z,92.00
2018-03-07T02:40:23.916Z,91.90
2018-03-07T02:42:53.898Z,92.00
2018-03-07T02:45:23.608Z,92.00
2018-03-07T02:47:55.037Z,92.20
2018-03-07T02:50:24.834Z,92.20
2018-03-07T02:52:55.730Z,92.00
2018-03-07T02:55:25.463Z,92.00
2018-03-07T02:57:56.570Z,91.90
2018-03-07T03:00:26.374Z,91.90
2018-03-07T03:02:56.865Z,92.00
2018-03-07T03:05:26.629Z,91.80
2018-03-07T03:07:56.323Z,91.80
2018-03-07T03:10:26.286Z,91.80
2018-03-07T03:12:57.502Z,91.50
2018-03-07T03:15:27.193Z,91.50
2018-03-07T03:17:57.279Z,91.40
2018-03-07T03:20:28.178Z,91.50
2018-03-07T03:22:58.219Z,91.40
2018-03-07T03:25:29.701Z,91.50
2018-03-07T03:27:59.443Z,91.50
2018-03-07T03:30:29.139Z,91.20
2018-03-07T03:32:59.874Z,90.80
2018-03-07T03:35:30.365Z,90.30
2018-03-07T03:38:00.136Z,90.30
2018-03-07T03:40:31.233Z,90.70
2018-03-07T03:43:00.956Z,90.70
2018-03-07T03:45:30.706Z,90.60
2018-03-07T03:48:00.378Z,90.50
2018-03-07T03:50:30.089Z,90.80
2018-03-07T03:53:00.347Z,90.70
2018-03-07T03:55:31.134Z,90.60
2018-03-07T03:58:00.996Z,90.50
2018-03-07T04:00:31.522Z,90.80
2018-03-07T04:03:01.246Z,90.80
2018-03-07T04:05:37.211Z,91.40
2018-03-07T04:08:07.531Z,91.40
2018-03-07T04:10:37.989Z,90.90
2018-03-07T04:13:07.702Z,90.90
2018-03-07T04:15:37.426Z,90.60
2018-03-07T04:18:07.122Z,90.40
2018-03-07T04:20:36.846Z,89.80
2018-03-07T04:23:07.848Z,89.50
2018-03-07T04:25:37.559Z,89.50
2018-03-07T04:28:07.269Z,89.90
2018-03-07T04:30:38.016Z,90.30
2018-03-07T04:33:07.723Z,90.40
2018-03-07T04:35:37.777Z,90.50
2018-03-07T04:38:07.519Z,90.60
2018-03-07T04:40:37.986Z,89.00
2018-03-07T04:43:07.695Z,89.00
2018-03-07T04:45:37.325Z,89.00
2018-03-07T04:48:07.028Z,86.90
2018-03-07T04:50:36.772Z,86.50
2018-03-07T04:53:06.449Z,85.60
2018-03-07T04:55:36.198Z,85.60
2018-03-07T04:58:06.867Z,85.80
2018-03-07T05:00:37.746Z,85.30
2018-03-07T05:03:07.435Z,85.30
2018-03-07T05:05:37.260Z,85.70
2018-03-07T05:08:08.803Z,85.20
2018-03-07T05:10:38.687Z,84.50
2018-03-07T05:13:10.727Z,83.20
2018-03-07T05:15:41.253Z,83.50
2018-03-07T05:18:11.780Z,83.30
2018-03-07T05:20:43.867Z,82.00
2018-03-07T05:23:14.968Z,82.10
2018-03-07T05:25:44.697Z,81.60
2018-03-07T05:28:14.358Z,80.30
2018-03-07T05:30:44.132Z,80.40
2018-03-07T05:33:14.563Z,81.40
2018-03-07T05:35:45.457Z,81.90
2018-03-07T05:38:15.165Z,81.90
2018-03-07T05:40:44.918Z,80.30
2018-03-07T05:43:14.959Z,79.90
2018-03-07T05:45:45.362Z,80.90
2018-03-07T05:48:15.845Z,82.40
2018-03-07T05:50:45.594Z,82.30
2018-03-07T05:53:15.400Z,82.50
2018-03-07T05:55:45.875Z,82.60
2018-03-07T05:58:15.607Z,82.50
2018-03-07T06:00:45.388Z,82.90
2018-03-07T06:03:15.271Z,82.90
2018-03-07T06:05:46.548Z,83.50
2018-03-07T06:08:16.893Z,83.40
2018-03-07T06:10:46.566Z,84.60
2018-03-07T06:13:17.292Z,85.10
2018-03-07T06:15:46.966Z,85.10
2018-03-07T06:18:16.630Z,84.70
2018-03-07T06:20:46.290Z,84.90
2018-03-07T06:23:16.112Z,84.90
2018-03-07T06:25:46.623Z,84.40
2018-03-07T06:28:16.318Z,84.40
2018-03-07T06:30:46.005Z,84.60
2018-03-07T06:33:15.736Z,85.10
2018-03-07T06:35:45.476Z,84.50
2018-03-07T06:38:15.775Z,84.60
2018-03-07T06:40:46.083Z,84.90
2018-03-07T06:43:16.573Z,85.60
2018-03-07T06:45:47.067Z,85.30
2018-03-07T06:48:16.824Z,85.30
2018-03-07T06:50:47.574Z,85.00
2018-03-07T06:53:17.363Z,85.00
2018-03-07T06:55:47.242Z,84.60
2018-03-07T06:58:17.319Z,84.70
2018-03-07T07:00:47.042Z,85.10
2018-03-07T07:03:16.762Z,84.80
2018-03-07T07:05:47.349Z,85.00
2018-03-07T07:08:17.085Z,84.20
2018-03-07T07:10:46.830Z,84.40
2018-03-07T07:13:17.496Z,83.20
2018-03-07T07:15:47.222Z,82.80
2018-03-07T07:18:16.941Z,82.90
2018-03-07T07:20:46.629Z,83.50
2018-03-07T07:23:16.288Z,82.90
2018-03-07T07:25:46.049Z,82.60
2018-03-07T07:28:16.357Z,82.70
2018-03-07T07:30:46.830Z,83.20
2018-03-07T07:33:17.174Z,83.20
2018-03-07T07:35:46.918Z,83.30
2018-03-07T07:38:17.625Z,82.30
2018-03-07T07:40:48.628Z,82.30
2018-03-07T07:43:18.391Z,82.00
2018-03-07T07:45:49.103Z,80.80
2018-03-07T07:48:18.795Z,80.80
2018-03-07T07:50:48.783Z,80.90
2018-03-07T07:53:18.531Z,80.00
2018-03-07T07:55:48.241Z,79.50
2018-03-07T07:58:18.256Z,79.40
2018-03-07T08:00:47.968Z,79.60
2018-03-07T08:03:17.797Z,78.90
2018-03-07T08:05:47.526Z,79.20
2018-03-07T08:08:18.095Z,79.60
2018-03-07T08:10:47.866Z,79.40
2018-03-07T08:13:19.518Z,78.80
2018-03-07T08:15:49.231Z,79.30
2018-03-07T08:18:20.246Z,79.40
2018-03-07T08:20:49.910Z,79.30
2018-03-07T08:23:19.626Z,79.90
2018-03-07T08:25:49.339Z,78.70
2018-03-07T08:28:19.046Z,78.90
2018-03-07T08:30:49.501Z,79.10
2018-03-07T08:33:19.250Z,79.60
2018-03-07T08:35:50.950Z,79.80
2018-03-07T08:38:20.705Z,79.70
2018-03-07T08:40:50.366Z,79.80
2018-03-07T08:43:21.076Z,80.20
2018-03-07T08:45:50.891Z,80.10
2018-03-07T08:48:20.566Z,81.10
2018-03-07T08:50:50.253Z,81.20
2018-03-07T08:53:19.932Z,81.70
2018-03-07T08:55:49.758Z,81.20
2018-03-07T08:58:20.339Z,81.40
2018-03-07T09:00:50.910Z,81.50
2018-03-07T09:03:20.604Z,81.40
2018-03-07T09:05:51.445Z,81.20
2018-03-07T09:08:21.120Z,81.30
2018-03-07T09:10:50.840Z,81.60
2018-03-07T09:13:21.358Z,81.70
2018-03-07T09:15:52.998Z,82.60
2018-03-07T09:18:23.198Z,81.70
2018-03-07T09:20:52.960Z,82.10
2018-03-07T09:23:23.482Z,82.70
2018-03-07T09:25:54.501Z,82.70
2018-03-07T09:28:25.046Z,82.70
2018-03-07T09:30:55.548Z,83.10
2018-03-07T09:33:25.489Z,83.00
2018-03-07T09:35:55.967Z,83.20
2018-03-07T09:38:26.040Z,83.20
2018-03-07T09:40:56.596Z,83.10
2018-03-07T09:43:26.546Z,83.00
2018-03-07T09:45:56.234Z,83.10
2018-03-07T09:48:25.929Z,83.00
2018-03-07T09:50:55.606Z,82.90
2018-03-07T09:53:26.213Z,83.00
2018-03-07T09:55:57.692Z,82.90
2018-03-07T10:01:00.064Z,83.10
2018-03-07T10:03:29.802Z,83.10
2018-03-07T10:05:59.536Z,83.00
2018-03-07T10:08:29.249Z,83.00
2018-03-07T10:11:00.045Z,83.00
2018-03-07T10:13:30.587Z,83.10
2018-03-07T10:16:00.963Z,83.10
2018-03-07T10:18:30.686Z,83.10
2018-03-07T10:21:00.420Z,83.30
2018-03-07T10:23:32.211Z,83.50
2018-03-07T10:26:02.152Z,83.50
2018-03-07T10:28:32.051Z,83.70
2018-03-07T10:31:01.743Z,83.60
2018-03-07T10:33:31.459Z,83.60
2018-03-07T10:36:01.235Z,84.00
2018-03-07T10:38:31.718Z,85.30
2018-03-07T10:41:01.467Z,85.30
2018-03-07T10:43:31.970Z,84.30
2018-03-07T10:46:01.696Z,84.30
2018-03-07T10:48:31.439Z,87.00
2018-03-07T10:51:02.090Z,88.00
2018-03-07T10:53:31.809Z,88.00
2018-03-07T10:56:01.988Z,88.00
2018-03-07T10:58:32.543Z,88.60
2018-03-07T11:01:02.347Z,88.60
2018-03-07T11:03:32.201Z,88.30
2018-03-07T11:06:01.920Z,88.10
2018-03-07T11:08:32.070Z,88.40
2018-03-07T11:11:02.044Z,87.80
2018-03-07T11:13:31.765Z,87.40
2018-03-07T11:16:01.475Z,86.90
2018-03-07T11:18:31.137Z,87.00
2018-03-07T11:21:01.632Z,86.50
2018-03-07T11:23:31.638Z,85.90
2018-03-07T11:26:02.785Z,85.20
2018-03-07T11:28:32.601Z,85.00
2018-03-07T11:31:03.149Z,86.40
2018-03-07T11:33:33.600Z,85.70
2018-03-07T11:36:04.822Z,85.70
2018-03-07T11:38:35.692Z,85.50
2018-03-07T11:41:05.432Z,85.50
2018-03-07T11:43:35.284Z,85.30
2018-03-07T11:46:05.764Z,87.40
2018-03-07T11:48:35.512Z,87.40
2018-03-07T11:51:06.076Z,89.20
2018-03-07T11:53:36.338Z,89.20
2018-03-07T11:56:06.765Z,87.90
2018-03-07T11:58:36.483Z,88.20
2018-03-07T12:01:06.542Z,88.40
2018-03-07T12:03:36.574Z,89.70
2018-03-07T12:06:06.710Z,90.10
2018-03-07T12:08:36.757Z,90.70
2018-03-07T12:11:06.790Z,90.80
2018-03-07T12:13:36.566Z,90.80
2018-03-07T12:16:06.764Z,90.30
2018-03-07T12:18:38.351Z,89.70
2018-03-07T12:21:08.049Z,89.60
2018-03-07T12:23:37.719Z,90.10
2018-03-07T12:26:08.211Z,90.20
2018-03-07T12:28:38.995Z,89.40
2018-03-07T12:31:09.256Z,89.40
2018-03-07T12:33:39.094Z,90.10
2018-03-07T12:36:09.048Z,90.40
2018-03-07T12:38:39.382Z,90.80
2018-03-07T12:41:09.630Z,91.30
2018-03-07T12:43:39.358Z,91.20
2018-03-07T12:46:09.262Z,90.80
2018-03-07T12:48:38.974Z,90.70
2018-03-07T12:51:09.639Z,90.80
2018-03-07T12:53:40.262Z,90.90
2018-03-07T12:56:10.131Z,90.90
2018-03-07T12:58:41.610Z,91.10
2018-03-07T13:01:11.306Z,91.10
2018-03-07T13:03:41.346Z,91.00
2018-03-07T13:06:14.209Z,90.90
2018-03-07T13:08:43.938Z,90.70
2018-03-07T13:11:13.783Z,91.00
2018-03-07T13:13:43.603Z,91.10
2018-03-07T13:16:16.495Z,91.20
2018-03-07T13:18:51.418Z,91.20
2018-03-07T13:21:22.815Z,91.30
2018-03-07T13:23:52.834Z,91.50
2018-03-07T13:26:24.196Z,92.10
2018-03-07T13:28:53.897Z,92.10
2018-03-07T13:31:24.046Z,92.20
2018-03-07T13:33:55.527Z,91.80
2018-03-07T13:36:25.391Z,91.80
2018-03-07T13:38:55.129Z,92.30
2018-03-07T13:41:25.674Z,92.20
2018-03-07T13:43:56.121Z,92.10
2018-03-07T13:46:25.882Z,92.00
2018-03-07T13:48:55.704Z,91.80
2018-03-07T13:51:25.571Z,91.60
2018-03-07T13:53:56.459Z,91.20
2018-03-07T13:56:27.044Z,91.10
2018-03-07T13:58:56.922Z,91.20
2018-03-07T14:01:26.711Z,91.20
2018-03-07T14:03:57.303Z,90.80
2018-03-07T14:06:27.271Z,90.80
2018-03-07T14:08:57.794Z,91.50
2018-03-07T14:11:28.339Z,91.80
2018-03-07T14:13:58.029Z,91.80
2018-03-07T14:16:28.046Z,91.80
2018-03-07T14:18:58.744Z,91.90
2018-03-07T14:21:29.735Z,91.90
2018-03-07T14:23:59.512Z,91.80
2018-03-07T14:26:29.273Z,91.90
2018-03-07T14:28:59.022Z,91.60
2018-03-07T14:31:28.737Z,91.70
2018-03-07T14:33:59.043Z,91.60
2018-03-07T14:36:29.817Z,91.80
2018-03-07T14:39:00.392Z,91.40
2018-03-07T14:41:30.146Z,91.40
2018-03-07T14:44:00.935Z,91.60
2018-03-07T14:46:30.697Z,91.60
2018-03-07T14:49:01.292Z,91.70
2018-03-07T14:51:31.040Z,91.70
2018-03-07T14:54:00.974Z,91.20
2018-03-07T14:56:31.033Z,91.40
2018-03-07T14:59:02.016Z,91.80
2018-03-07T15:01:31.768Z,91.80
2018-03-07T15:04:01.696Z,91.80
2018-03-07T15:06:31.481Z,91.80
2018-03-07T15:09:02.174Z,91.80
2018-03-07T15:11:32.321Z,92.10
2018-03-07T15:14:03.506Z,91.70
2018-03-07T15:16:33.261Z,91.70
2018-03-07T15:19:04.361Z,91.60
2018-03-07T15:21:34.401Z,91.60
2018-03-07T15:24:04.139Z,91.60
2018-03-07T15:26:34.774Z,91.70
2018-03-07T15:29:05.382Z,91.80
2018-03-07T15:31:35.256Z,91.80
2018-03-07T15:34:04.987Z,91.70
2018-03-07T15:36:34.720Z,91.70
2018-03-07T15:39:04.688Z,91.80
2018-03-07T15:41:34.997Z,91.70
2018-03-07T15:44:04.743Z,91.50
2018-03-07T15:46:34.493Z,91.50
2018-03-07T15:49:04.206Z,91.60
2018-03-07T15:51:34.682Z,91.80
2018-03-07T15:54:04.464Z,91.80
2018-03-07T15:56:34.174Z,91.90
2018-03-07T15:59:04.133Z,91.80
2018-03-07T16:01:33.823Z,91.90
2018-03-07T16:04:03.556Z,91.90
2018-03-07T16:06:33.266Z,91.80
2018-03-07T16:09:03.298Z,91.70
2018-03-07T16:11:32.914Z,91.70
2018-03-07T16:14:03.214Z,91.80
2018-03-07T16:16:32.930Z,91.70
2018-03-07T16:19:03.582Z,91.60
2018-03-07T16:21:33.357Z,91.60
2018-03-07T16:24:03.183Z,91.80
2018-03-07T16:26:32.920Z,91.80
2018-03-07T16:29:02.660Z,91.60
2018-03-07T16:31:32.342Z,91.80
2018-03-07T16:34:02.826Z,91.70
2018-03-07T16:36:32.551Z,91.40
2018-03-07T16:39:02.309Z,91.60
2018-03-07T16:41:32.794Z,91.70
2018-03-07T16:44:03.213Z,91.60
2018-03-07T16:46:32.937Z,91.70
2018-03-07T16:49:02.688Z,91.70
2018-03-07T16:51:32.382Z,91.50
2018-03-07T16:54:02.086Z,91.60
2018-03-07T16:56:32.127Z,91.80
2018-03-07T16:59:02.223Z,91.90
2018-03-07T17:01:32.650Z,91.80
2018-03-07T17:04:03.072Z,91.80
2018-03-07T17:06:32.885Z,91.80
2018-03-07T17:09:03.971Z,91.80
2018-03-07T17:11:33.737Z,91.80
2018-03-07T17:14:05.582Z,92.00
2018-03-07T17:16:35.302Z,92.00
2018-03-07T17:19:05.037Z,92.00
2018-03-07T17:21:35.535Z,92.00
2018-03-07T17:24:05.234Z,92.00
2018-03-07T17:26:37.648Z,92.00
2018-03-07T17:29:08.734Z,92.00
2018-03-07T17:31:38.441Z,92.00
2018-03-07T17:34:08.111Z,92.10
2018-03-07T17:36:37.872Z,92.20
2018-03-07T17:39:07.542Z,92.20
2018-03-07T17:41:37.490Z,92.20
2018-03-07T17:44:07.686Z,92.30
2018-03-07T17:46:37.543Z,92.30
2018-03-07T17:49:07.468Z,92.40
2018-03-07T17:51:38.072Z,92.40
2018-03-07T17:54:07.778Z,92.40
2018-03-07T17:56:38.481Z,92.50
2018-03-07T17:59:08.223Z,92.50
2018-03-07T18:01:37.908Z,92.40
2018-03-07T18:04:07.917Z,92.30
2018-03-07T18:06:38.333Z,92.40
2018-03-07T18:09:08.704Z,92.30
2018-03-07T18:11:39.648Z,92.50
2018-03-07T18:14:10.200Z,92.40
2018-03-07T18:16:39.918Z,92.50
2018-03-07T18:19:10.400Z,92.40
2018-03-07T18:21:40.118Z,92.30
2018-03-07T18:24:10.018Z,92.40
2018-03-07T18:26:41.227Z,92.40
2018-03-07T18:29:11.034Z,92.40
2018-03-07T18:31:40.746Z,92.50
2018-03-07T18:34:11.034Z,92.40
2018-03-07T18:36:42.243Z,92.50
2018-03-07T18:39:12.027Z,92.40
2018-03-07T18:41:44.010Z,92.50
2018-03-07T18:44:13.666Z,92.50
2018-03-07T18:46:43.313Z,92.50
2018-03-07T18:49:13.787Z,92.70
2018-03-07T18:51:43.504Z,92.60
2018-03-07T18:54:13.259Z,92.70
2018-03-07T18:56:44.160Z,92.90
2018-03-07T18:59:13.928Z,92.80
2018-03-07T19:01:45.149Z,92.80
2018-03-07T19:04:15.641Z,92.80
2018-03-07T19:06:45.553Z,92.80
2018-03-07T19:09:15.231Z,92.80
2018-03-07T19:11:45.481Z,92.90
2018-03-07T19:14:15.931Z,92.90
2018-03-07T19:16:46.954Z,93.00
2018-03-07T19:19:16.938Z,92.90
2018-03-07T19:21:47.278Z,92.90
2018-03-07T19:24:17.354Z,92.90
2018-03-07T19:26:47.906Z,93.00
2018-03-07T19:29:17.641Z,93.00
2018-03-07T19:31:47.417Z,93.00
2018-03-07T19:34:17.152Z,93.30
2018-03-07T19:36:46.871Z,93.30
2018-03-07T19:39:17.529Z,93.20
2018-03-07T19:41:47.799Z,93.20
2018-03-07T19:44:18.661Z,93.20
2018-03-07T19:46:48.325Z,93.10
2018-03-07T19:49:18.902Z,93.20
2018-03-07T19:51:48.623Z,93.20
2018-03-07T19:54:19.674Z,93.70
2018-03-07T19:56:49.782Z,93.40
2018-03-07T19:59:20.286Z,93.70
2018-03-07T20:01:49.990Z,93.40
2018-03-07T20:04:19.686Z,93.40
2018-03-07T20:06:49.558Z,93.50
2018-03-07T20:09:19.914Z,93.70
2018-03-07T20:11:51.178Z,93.90
2018-03-07T20:14:20.920Z,93.90
2018-03-07T20:16:51.592Z,94.30
2018-03-07T20:19:22.246Z,94.20
2018-03-07T20:21:52.105Z,94.20
2018-03-07T20:24:21.856Z,94.10
2018-03-07T20:26:51.898Z,94.10
2018-03-07T20:29:22.154Z,94.30
2018-03-07T20:31:52.172Z,93.70
2018-03-07T20:34:22.481Z,93.70
2018-03-07T20:36:53.432Z,93.90
2018-03-07T20:39:23.789Z,93.90
2018-03-07T20:41:54.347Z,94.00
2018-03-07T20:44:24.007Z,94.00
2018-03-07T20:46:53.955Z,93.90
2018-03-07T20:49:25.066Z,93.90
2018-03-07T20:51:55.074Z,93.90
2018-03-07T20:54:24.780Z,93.90
2018-03-07T20:56:54.881Z,93.90
2018-03-07T20:59:24.643Z,94.00
2018-03-07T21:01:55.330Z,94.20
2018-03-07T21:04:25.116Z,94.10
2018-03-07T21:06:55.824Z,94.10
2018-03-07T21:09:26.242Z,94.40
2018-03-07T21:11:56.696Z,94.30
2018-03-07T21:14:27.812Z,94.30
2018-03-07T21:16:58.818Z,94.10
2018-03-07T21:19:28.770Z,94.10
2018-03-07T21:21:58.875Z,94.10
2018-03-07T21:24:29.883Z,94.00
2018-03-07T21:26:59.837Z,93.90
2018-03-07T21:29:30.010Z,93.90
2018-03-07T21:32:00.087Z,93.90
2018-03-07T21:34:30.987Z,93.90
2018-03-07T21:37:01.364Z,93.90
2018-03-07T21:39:32.400Z,93.90
2018-03-07T21:42:03.799Z,94.20
2018-03-07T21:44:33.541Z,94.20
2018-03-07T21:47:03.855Z,94.70
2018-03-07T21:49:34.066Z,94.20
2018-03-07T21:52:05.034Z,93.80
2018-03-07T21:54:36.014Z,93.80
2018-03-07T21:57:06.679Z,94.00
2018-03-07T21:59:36.895Z,93.70
2018-03-07T22:02:08.266Z,93.60
2018-03-07T22:04:37.954Z,93.60
2018-03-07T22:07:07.639Z,93.80
2018-03-07T22:09:37.362Z,93.90
2018-03-07T22:12:07.229Z,94.00
2018-03-07T22:14:37.719Z,93.80
2018-03-07T22:17:08.187Z,93.80
2018-03-07T22:19:39.208Z,94.00
2018-03-07T22:22:09.422Z,94.00
2018-03-07T22:24:39.451Z,94.00
2018-03-07T22:27:09.629Z,94.10
2018-03-07T22:29:39.581Z,94.40
2018-03-07T22:32:09.910Z,94.40
2018-03-07T22:34:40.283Z,94.00
2018-03-07T22:37:10.464Z,93.90
2018-03-07T22:39:41.426Z,94.00
2018-03-07T22:42:12.117Z,93.90
2018-03-07T22:44:43.790Z,93.70
2018-03-07T22:47:14.788Z,93.60
2018-03-07T22:49:45.039Z,93.60
2018-03-07T22:52:15.276Z,93.70
2018-03-07T22:54:47.146Z,93.70
2018-03-07T22:57:17.210Z,93.70
2018-03-07T22:59:47.612Z,93.70
2018-03-07T23:02:17.566Z,93.60
2018-03-07T23:04:47.272Z,93.50
2018-03-07T23:07:16.975Z,93.60
2018-03-07T23:09:46.610Z,93.80
2018-03-07T23:12:16.482Z,93.60
2018-03-07T23:14:46.131Z,93.90
2018-03-07T23:17:16.266Z,93.90
2018-03-07T23:19:45.945Z,93.90
2018-03-07T23:22:15.645Z,93.90
2018-03-07T23:24:46.579Z,94.00
2018-03-07T23:27:16.316Z,94.00
2018-03-07T23:29:45.995Z,93.90
2018-03-07T23:32:15.718Z,93.80
2018-03-07T23:34:45.393Z,93.60
2018-03-07T23:37:15.867Z,93.70
2018-03-07T23:39:45.527Z,93.50
2018-03-07T23:42:15.217Z,93.60
2018-03-07T23:44:44.963Z,93.50
2018-03-07T23:47:14.692Z,93.30
2018-03-07T23:49:44.386Z,93.30
2018-03-07T23:52:14.126Z,93.50
2018-03-07T23:54:43.863Z,93.60
2018-03-07T23:57:14.363Z,93.50
2018-03-07T23:59:45.202Z,93.50
